createdAt,value
2023-09-14T00:00:14.104Z,20.13
2023-09-14T00:01:14.118Z,20.26
2023-09-14T00:02:13.947Z,20.26
2023-09-14T00:03:13.967Z,20.24
2023-09-14T00:04:13.925Z,20.16
2023-09-14T00:05:13.719Z,20.16
2023-09-14T00:06:13.645Z,20.11
2023-09-14T00:07:13.568Z,20.14
2023-09-14T00:08:13.497Z,20.11
2023-09-14T00:09:13.410Z,20.14
2023-09-14T00:10:13.340Z,20.11
2023-09-14T00:11:13.257Z,20.11
2023-09-14T00:12:13.182Z,20.04
2023-09-14T00:13:13.104Z,20.16
2023-09-14T00:14:13.024Z,20.11
2023-09-14T00:15:12.954Z,20.09
2023-09-14T00:16:12.922Z,20.06
2023-09-14T00:17:12.799Z,20.02
2023-09-14T00:18:12.775Z,20.11
2023-09-14T00:19:12.696Z,19.99
2023-09-14T00:20:12.580Z,20.07
2023-09-14T00:21:12.490Z,20.04
2023-09-14T00:22:12.410Z,20.03
2023-09-14T00:23:12.351Z,19.95
2023-09-14T00:24:12.266Z,19.89
2023-09-14T00:25:12.261Z,19.94
2023-09-14T00:26:12.108Z,19.86
2023-09-14T00:27:12.033Z,19.88
2023-09-14T00:28:11.964Z,19.94
2023-09-14T00:29:11.878Z,19.86
2023-09-14T00:30:11.822Z,19.89
2023-09-14T00:31:11.771Z,19.84
2023-09-14T00:32:11.653Z,19.82
2023-09-14T00:33:11.569Z,19.79
2023-09-14T00:34:11.517Z,19.76
2023-09-14T00:35:11.441Z,19.79
2023-09-14T00:36:11.342Z,19.84
2023-09-14T00:37:11.313Z,19.77
2023-09-14T00:38:11.195Z,19.81
2023-09-14T00:39:11.121Z,19.66
2023-09-14T00:40:11.036Z,19.67
2023-09-14T00:41:10.963Z,19.66
2023-09-14T00:42:10.894Z,19.67
2023-09-14T00:43:10.831Z,19.74
2023-09-14T00:44:10.729Z,19.69
2023-09-14T00:45:10.665Z,19.70
2023-09-14T00:46:10.597Z,19.67
2023-09-14T00:47:10.508Z,19.62
2023-09-14T00:48:10.454Z,19.59
2023-09-14T00:49:10.406Z,19.62
2023-09-14T00:50:10.269Z,19.58
2023-09-14T00:51:10.201Z,19.62
2023-09-14T00:52:10.151Z,19.62
2023-09-14T00:53:10.098Z,19.59
2023-09-14T00:54:09.975Z,19.48
2023-09-14T00:55:09.928Z,19.58
2023-09-14T00:56:09.817Z,19.55
2023-09-14T00:57:09.739Z,19.56
2023-09-14T00:58:09.682Z,19.49
2023-09-14T00:59:09.624Z,19.55
2023-09-14T01:00:09.520Z,19.55
2023-09-14T01:01:09.535Z,19.55
2023-09-14T01:02:09.422Z,19.54
2023-09-14T01:03:09.460Z,19.45
2023-09-14T01:04:09.313Z,19.39
2023-09-14T01:05:09.127Z,19.44
2023-09-14T01:06:09.072Z,19.36
2023-09-14T01:07:09.056Z,19.40
2023-09-14T01:08:08.933Z,19.33
2023-09-14T01:09:08.827Z,19.34
2023-09-14T01:10:08.770Z,19.30
2023-09-14T01:11:08.676Z,19.30
2023-09-14T01:12:08.592Z,19.30
2023-09-14T01:13:08.530Z,19.31
2023-09-14T01:14:08.428Z,19.29
2023-09-14T01:15:08.360Z,19.24
2023-09-14T01:16:08.347Z,19.34
2023-09-14T01:17:08.205Z,19.29
2023-09-14T01:18:08.155Z,19.29
2023-09-14T01:19:08.081Z,19.33
2023-09-14T01:20:07.969Z,19.29
2023-09-14T01:21:07.900Z,19.36
2023-09-14T01:22:07.867Z,19.19
2023-09-14T01:23:07.755Z,19.29
2023-09-14T01:24:07.675Z,19.22
2023-09-14T01:25:07.623Z,19.24
2023-09-14T01:26:07.524Z,19.26
2023-09-14T01:27:07.433Z,19.26
2023-09-14T01:28:07.408Z,19.27
2023-09-14T01:29:07.280Z,19.27
2023-09-14T01:30:07.215Z,19.16
2023-09-14T01:31:07.152Z,19.18
2023-09-14T01:32:07.064Z,19.14
2023-09-14T01:33:07.004Z,19.22
2023-09-14T01:34:06.963Z,19.21
2023-09-14T01:35:06.840Z,19.19
2023-09-14T01:36:06.739Z,19.02
2023-09-14T01:37:06.717Z,19.09
2023-09-14T01:38:06.596Z,19.00
2023-09-14T01:39:06.611Z,18.93
2023-09-14T01:40:06.520Z,18.93
2023-09-14T01:41:06.364Z,18.96
2023-09-14T01:42:06.299Z,18.89
2023-09-14T01:43:06.252Z,18.84
2023-09-14T01:44:06.137Z,18.86
2023-09-14T01:45:06.055Z,18.86
2023-09-14T01:46:06.031Z,18.90
2023-09-14T01:47:05.945Z,18.86
2023-09-14T01:48:05.870Z,18.95
2023-09-14T01:49:05.768Z,18.88
2023-09-14T01:50:05.672Z,18.84
2023-09-14T01:51:05.598Z,18.83
2023-09-14T01:52:05.543Z,18.93
2023-09-14T01:53:05.430Z,18.90
2023-09-14T01:54:05.357Z,18.88
2023-09-14T01:55:05.300Z,18.80
2023-09-14T01:56:05.202Z,18.90
2023-09-14T01:57:05.124Z,18.88
2023-09-14T01:58:05.088Z,18.83
2023-09-14T01:59:04.981Z,18.92
2023-09-14T02:00:04.901Z,18.81
2023-09-14T02:01:04.836Z,18.83
2023-09-14T02:02:04.783Z,18.88
2023-09-14T02:03:04.695Z,18.88
2023-09-14T02:04:04.618Z,18.86
2023-09-14T02:05:04.524Z,18.77
2023-09-14T02:06:04.435Z,18.77
2023-09-14T02:07:04.379Z,18.83
2023-09-14T02:08:04.278Z,18.75
2023-09-14T02:09:04.198Z,18.63
2023-09-14T02:10:04.159Z,18.71
2023-09-14T02:11:04.047Z,18.84
2023-09-14T02:12:03.974Z,18.68
2023-09-14T02:13:03.909Z,18.62
2023-09-14T02:14:03.836Z,18.55
2023-09-14T02:15:03.750Z,18.58
2023-09-14T02:16:03.709Z,18.63
2023-09-14T02:17:03.575Z,18.56
2023-09-14T02:18:03.528Z,18.52
2023-09-14T02:19:03.481Z,18.52
2023-09-14T02:20:03.350Z,18.50
2023-09-14T02:21:03.268Z,18.52
2023-09-14T02:22:03.213Z,18.44
2023-09-14T02:23:03.117Z,18.47
2023-09-14T02:24:03.037Z,18.44
2023-09-14T02:25:03.019Z,18.47
2023-09-14T02:26:02.882Z,18.44
2023-09-14T02:27:02.814Z,18.38
2023-09-14T02:28:02.743Z,18.41
2023-09-14T02:29:02.659Z,18.41
2023-09-14T02:30:02.580Z,18.47
2023-09-14T02:31:02.543Z,18.41
2023-09-14T02:32:02.453Z,18.49
2023-09-14T02:33:02.432Z,18.45
2023-09-14T02:34:02.406Z,18.40
2023-09-14T02:35:02.206Z,18.41
2023-09-14T02:36:02.108Z,18.41
2023-09-14T02:37:02.066Z,18.35
2023-09-14T02:38:01.959Z,18.44
2023-09-14T02:39:01.880Z,18.40
2023-09-14T02:40:01.862Z,18.40
2023-09-14T02:41:01.771Z,18.38
2023-09-14T02:42:01.643Z,18.41
2023-09-14T02:43:01.654Z,18.37
2023-09-14T02:44:01.495Z,18.38
2023-09-14T02:45:01.417Z,18.34
2023-09-14T02:46:01.474Z,18.34
2023-09-14T02:47:01.311Z,18.41
2023-09-14T02:48:01.218Z,18.41
2023-09-14T02:49:01.158Z,18.41
2023-09-14T02:50:01.028Z,18.41
2023-09-14T02:51:00.950Z,18.37
2023-09-14T02:52:00.921Z,18.35
2023-09-14T02:53:00.798Z,18.37
2023-09-14T02:54:00.711Z,18.37
2023-09-14T02:55:00.708Z,18.33
2023-09-14T02:56:00.565Z,18.34
2023-09-14T02:57:00.481Z,18.44
2023-09-14T02:58:00.516Z,18.40
2023-09-14T02:59:00.325Z,18.41
2023-09-14T03:00:00.301Z,18.29
2023-09-14T03:01:00.216Z,18.29
2023-09-14T03:02:00.137Z,18.25
2023-09-14T03:03:00.111Z,18.34
2023-09-14T03:03:59.970Z,18.31
2023-09-14T03:04:59.863Z,18.26
2023-09-14T03:05:59.779Z,18.28
2023-09-14T03:06:59.756Z,18.26
2023-09-14T03:07:59.621Z,18.26
2023-09-14T03:08:59.562Z,18.20
2023-09-14T03:09:59.490Z,18.19
2023-09-14T03:10:59.438Z,18.08
2023-09-14T03:11:59.315Z,18.04
2023-09-14T03:12:59.285Z,18.11
2023-09-14T03:13:59.160Z,18.16
2023-09-14T03:14:59.100Z,18.08
2023-09-14T03:15:59.168Z,18.04
2023-09-14T03:16:58.984Z,18.05
2023-09-14T03:17:58.868Z,18.15
2023-09-14T03:18:58.815Z,18.07
2023-09-14T03:19:58.698Z,18.05
2023-09-14T03:20:58.620Z,18.00
2023-09-14T03:21:58.564Z,18.07
2023-09-14T03:22:58.469Z,18.04
2023-09-14T03:23:58.390Z,17.97
2023-09-14T03:24:58.341Z,17.98
2023-09-14T03:25:58.230Z,17.95
2023-09-14T03:26:58.156Z,17.98
2023-09-14T03:27:58.084Z,18.03
2023-09-14T03:28:57.999Z,18.03
2023-09-14T03:29:57.920Z,18.05
2023-09-14T03:30:57.837Z,18.05
2023-09-14T03:31:57.804Z,18.03
2023-09-14T03:32:57.722Z,17.94
2023-09-14T03:33:57.652Z,18.08
2023-09-14T03:34:57.535Z,18.07
2023-09-14T03:35:57.449Z,18.03
2023-09-14T03:36:57.445Z,18.03
2023-09-14T03:37:57.297Z,17.94
2023-09-14T03:38:57.222Z,18.10
2023-09-14T03:39:57.158Z,18.08
2023-09-14T03:40:57.064Z,18.05
2023-09-14T03:41:56.982Z,18.05
2023-09-14T03:42:56.927Z,18.04
2023-09-14T03:43:56.843Z,18.07
2023-09-14T03:44:56.756Z,17.97
2023-09-14T03:45:56.724Z,17.97
2023-09-14T03:46:56.605Z,17.95
2023-09-14T03:47:56.549Z,17.95
2023-09-14T03:48:56.453Z,18.00
2023-09-14T03:49:56.374Z,17.94
2023-09-14T03:50:56.287Z,17.95
2023-09-14T03:51:56.255Z,17.94
2023-09-14T03:52:56.130Z,18.01
2023-09-14T03:53:56.059Z,18.04
2023-09-14T03:54:56.004Z,17.94
2023-09-14T03:55:55.908Z,18.00
2023-09-14T03:56:55.825Z,17.92
2023-09-14T03:57:55.791Z,17.95
2023-09-14T04:00:27.202Z,17.95
2023-09-14T04:01:27.131Z,18.04
2023-09-14T04:03:30.965Z,18.05
2023-09-14T04:04:30.872Z,18.07
2023-09-14T04:06:34.678Z,18.04
2023-09-14T04:07:34.597Z,18.01
2023-09-14T04:09:38.452Z,18.08
2023-09-14T04:10:38.338Z,18.07
2023-09-14T04:12:31.100Z,18.07
2023-09-14T04:13:31.019Z,18.11
2023-09-14T04:15:34.826Z,18.11
2023-09-14T04:16:34.863Z,18.05
2023-09-14T04:18:38.785Z,18.16
2023-09-14T04:19:38.485Z,18.13
2023-09-14T04:21:42.330Z,18.11
2023-09-14T04:22:42.249Z,18.08
2023-09-14T04:24:46.074Z,18.15
2023-09-14T04:25:45.987Z,18.11
2023-09-14T04:26:45.906Z,18.15
2023-09-14T04:27:45.833Z,18.15
2023-09-14T04:28:46.007Z,18.25
2023-09-14T04:29:45.685Z,18.37
2023-09-14T04:30:45.752Z,18.20
2023-09-14T04:31:45.596Z,18.23
2023-09-14T04:32:45.468Z,18.25
2023-09-14T04:33:45.379Z,18.29
2023-09-14T04:34:45.308Z,18.25
2023-09-14T04:35:45.198Z,18.28
2023-09-14T04:36:45.984Z,18.23
2023-09-14T04:37:45.060Z,18.31
2023-09-14T04:38:45.227Z,18.26
2023-09-14T04:39:44.905Z,18.34
2023-09-14T04:40:44.816Z,18.23
2023-09-14T04:41:44.740Z,18.34
2023-09-14T04:42:44.677Z,18.35
2023-09-14T04:43:44.577Z,18.29
2023-09-14T04:44:44.524Z,18.28
2023-09-14T04:45:44.463Z,18.37
2023-09-14T04:46:44.394Z,18.33
2023-09-14T04:47:44.281Z,18.25
2023-09-14T04:48:44.552Z,18.34
2023-09-14T04:49:44.117Z,18.29
2023-09-14T04:50:44.042Z,18.38
2023-09-14T04:51:43.963Z,18.29
2023-09-14T04:52:43.877Z,18.37
2023-09-14T04:53:43.809Z,18.37
2023-09-14T04:54:43.774Z,18.40
2023-09-14T04:55:43.649Z,18.38
2023-09-14T04:56:43.569Z,18.41
2023-09-14T04:57:43.496Z,18.40
2023-09-14T04:58:43.427Z,18.38
2023-09-14T04:59:43.333Z,18.34
2023-09-14T05:00:43.307Z,18.40
2023-09-14T05:01:43.201Z,18.44
2023-09-14T05:02:43.154Z,18.38
2023-09-14T05:03:43.069Z,18.44
2023-09-14T05:04:43.060Z,18.45
2023-09-14T05:05:42.860Z,18.38
2023-09-14T05:06:42.851Z,18.43
2023-09-14T05:07:42.707Z,18.49
2023-09-14T05:08:42.645Z,18.53
2023-09-14T05:09:42.586Z,18.52
2023-09-14T05:10:42.486Z,18.53
2023-09-14T05:11:42.412Z,18.55
2023-09-14T05:12:42.348Z,18.50
2023-09-14T05:13:42.247Z,18.52
2023-09-14T05:14:42.184Z,18.60
2023-09-14T05:15:42.124Z,18.52
2023-09-14T05:16:42.116Z,18.50
2023-09-14T05:17:41.952Z,18.59
2023-09-14T05:18:41.921Z,18.55
2023-09-14T05:19:41.782Z,18.52
2023-09-14T05:20:41.703Z,18.52
2023-09-14T05:21:41.696Z,18.53
2023-09-14T05:22:41.542Z,18.50
2023-09-14T05:23:41.473Z,18.65
2023-09-14T05:24:43.961Z,18.53
2023-09-14T05:25:41.323Z,18.53
2023-09-14T05:26:41.234Z,18.60
2023-09-14T05:27:41.359Z,18.55
2023-09-14T05:28:41.079Z,18.52
2023-09-14T05:29:41.016Z,18.60
2023-09-14T05:30:41.003Z,18.59
2023-09-14T05:31:40.913Z,18.56
2023-09-14T05:32:40.830Z,18.63
2023-09-14T05:33:40.762Z,18.62
2023-09-14T05:34:40.614Z,18.60
2023-09-14T05:35:40.552Z,18.62
2023-09-14T05:36:40.526Z,18.65
2023-09-14T05:37:40.378Z,18.62
2023-09-14T05:38:40.298Z,18.60
2023-09-14T05:39:40.234Z,18.65
2023-09-14T05:40:40.153Z,18.65
2023-09-14T05:41:40.067Z,18.63
2023-09-14T05:42:40.049Z,18.68
2023-09-14T05:43:39.916Z,18.68
2023-09-14T05:44:39.897Z,18.70
2023-09-14T05:45:39.801Z,18.68
2023-09-14T05:46:39.702Z,18.65
2023-09-14T05:47:39.654Z,18.70
2023-09-14T05:48:39.580Z,18.70
2023-09-14T05:49:39.489Z,18.70
2023-09-14T05:50:39.368Z,18.78
2023-09-14T05:51:39.332Z,18.81
2023-09-14T05:52:39.675Z,18.80
2023-09-14T05:53:39.142Z,18.73
2023-09-14T05:54:39.099Z,18.71
2023-09-14T05:55:38.992Z,18.80
2023-09-14T05:56:38.937Z,18.75
2023-09-14T05:57:38.837Z,18.80
2023-09-14T05:58:38.748Z,18.70
2023-09-14T05:59:38.697Z,18.78
2023-09-14T06:00:38.683Z,18.83
2023-09-14T06:01:38.573Z,18.77
2023-09-14T06:02:38.469Z,18.73
2023-09-14T06:03:38.407Z,18.86
2023-09-14T06:04:38.312Z,18.75
2023-09-14T06:05:38.340Z,18.66
2023-09-14T06:06:38.129Z,18.66
2023-09-14T06:07:38.051Z,18.66
2023-09-14T06:08:37.975Z,18.83
2023-09-14T06:09:37.896Z,18.78
2023-09-14T06:10:37.810Z,18.84
2023-09-14T06:11:37.741Z,18.80
2023-09-14T06:12:37.680Z,18.83
2023-09-14T06:13:37.589Z,18.83
2023-09-14T06:14:37.512Z,18.77
2023-09-14T06:15:37.427Z,18.81
2023-09-14T06:16:37.436Z,18.86
2023-09-14T06:17:37.301Z,18.81
2023-09-14T06:18:37.201Z,18.81
2023-09-14T06:19:37.121Z,18.75
2023-09-14T06:20:37.071Z,18.73
2023-09-14T06:21:36.974Z,18.80
2023-09-14T06:22:36.885Z,18.83
2023-09-14T06:23:36.813Z,18.81
2023-09-14T06:24:36.729Z,18.84
2023-09-14T06:25:36.665Z,18.81
2023-09-14T06:26:36.574Z,18.86
2023-09-14T06:27:36.498Z,18.83
2023-09-14T06:28:36.420Z,18.81
2023-09-14T06:29:36.338Z,18.81
2023-09-14T06:30:36.280Z,18.86
2023-09-14T06:31:36.291Z,18.95
2023-09-14T06:32:36.166Z,18.84
2023-09-14T06:33:36.039Z,18.83
2023-09-14T06:34:35.967Z,18.86
2023-09-14T06:35:35.914Z,18.89
2023-09-14T06:36:35.808Z,18.90
2023-09-14T06:37:35.721Z,18.90
2023-09-14T06:38:35.648Z,18.93
2023-09-14T06:39:35.564Z,18.92
2023-09-14T06:40:35.491Z,18.96
2023-09-14T06:41:35.411Z,18.92
2023-09-14T06:42:35.338Z,18.92
2023-09-14T06:43:35.259Z,18.92
2023-09-14T06:44:35.193Z,18.93
2023-09-14T06:45:35.113Z,18.84
2023-09-14T06:46:35.173Z,18.99
2023-09-14T06:47:35.621Z,18.99
2023-09-14T06:48:34.874Z,19.02
2023-09-14T06:49:34.809Z,19.00
2023-09-14T06:50:34.717Z,19.08
2023-09-14T06:51:34.641Z,19.09
2023-09-14T06:52:34.560Z,19.04
2023-09-14T06:53:34.492Z,19.00
2023-09-14T06:54:34.415Z,19.09
2023-09-14T06:55:34.329Z,19.19
2023-09-14T06:56:34.262Z,19.09
2023-09-14T06:57:34.176Z,19.18
2023-09-14T06:58:34.169Z,19.16
2023-09-14T06:59:34.034Z,19.26
2023-09-14T07:00:33.993Z,19.21
2023-09-14T07:01:33.957Z,19.29
2023-09-14T07:02:36.453Z,19.27
2023-09-14T07:03:33.897Z,19.22
2023-09-14T07:04:33.679Z,19.31
2023-09-14T07:05:33.559Z,19.30
2023-09-14T07:06:33.485Z,19.30
2023-09-14T07:07:33.499Z,19.24
2023-09-14T07:08:33.348Z,19.31
2023-09-14T07:09:33.313Z,19.31
2023-09-14T07:10:34.345Z,19.36
2023-09-14T07:11:33.104Z,19.34
2023-09-14T07:12:33.019Z,19.37
2023-09-14T07:13:32.942Z,19.45
2023-09-14T07:14:32.868Z,19.40
2023-09-14T07:15:32.786Z,19.47
2023-09-14T07:16:32.771Z,19.44
2023-09-14T07:17:32.644Z,19.40
2023-09-14T07:18:32.553Z,19.47
2023-09-14T07:19:32.490Z,19.47
2023-09-14T07:20:32.400Z,19.48
2023-09-14T07:21:32.318Z,19.54
2023-09-14T07:22:32.277Z,19.56
2023-09-14T07:23:32.169Z,19.51
2023-09-14T07:24:32.099Z,19.48
2023-09-14T07:25:32.018Z,19.59
2023-09-14T07:26:31.945Z,19.56
2023-09-14T07:27:31.863Z,19.48
2023-09-14T07:28:31.782Z,19.55
2023-09-14T07:29:31.698Z,19.49
2023-09-14T07:30:31.627Z,19.55
2023-09-14T07:31:31.660Z,19.59
2023-09-14T07:32:31.495Z,19.62
2023-09-14T07:33:31.397Z,19.55
2023-09-14T07:34:31.370Z,19.59
2023-09-14T07:35:31.253Z,19.71
2023-09-14T07:36:31.177Z,19.64
2023-09-14T07:37:31.084Z,19.70
2023-09-14T07:38:31.047Z,19.64
2023-09-14T07:39:30.931Z,19.66
2023-09-14T07:40:30.858Z,19.73
2023-09-14T07:41:30.784Z,19.67
2023-09-14T07:42:30.707Z,19.84
2023-09-14T07:43:30.625Z,19.76
2023-09-14T07:44:30.542Z,19.85
2023-09-14T07:45:32.740Z,19.79
2023-09-14T07:46:30.517Z,19.85
2023-09-14T07:47:30.319Z,19.82
2023-09-14T07:48:30.237Z,19.85
2023-09-14T07:49:30.163Z,19.85
2023-09-14T07:50:30.080Z,19.88
2023-09-14T07:51:30.004Z,19.88
2023-09-14T07:52:29.952Z,19.82
2023-09-14T07:53:29.848Z,19.88
2023-09-14T07:54:29.780Z,19.92
2023-09-14T07:55:29.699Z,19.92
2023-09-14T07:56:29.618Z,19.94
2023-09-14T07:57:29.540Z,19.95
2023-09-14T07:58:29.470Z,19.92
2023-09-14T07:59:29.394Z,19.92
2023-09-14T08:00:29.319Z,19.92
2023-09-14T08:01:29.239Z,19.92
2023-09-14T08:02:29.218Z,19.99
2023-09-14T08:03:29.178Z,19.99
2023-09-14T08:04:29.187Z,20.02
2023-09-14T08:05:29.052Z,20.11
2023-09-14T08:06:28.850Z,20.09
2023-09-14T08:07:28.783Z,20.18
2023-09-14T08:08:28.697Z,20.16
2023-09-14T08:09:28.616Z,20.22
2023-09-14T08:10:28.562Z,20.26
2023-09-14T08:11:28.470Z,20.31
2023-09-14T08:12:28.387Z,20.24
2023-09-14T08:13:28.321Z,20.21
2023-09-14T08:14:28.226Z,20.21
2023-09-14T08:15:28.153Z,20.39
2023-09-14T08:16:28.124Z,20.39
2023-09-14T08:17:28.036Z,20.40
2023-09-14T08:18:27.920Z,20.43
2023-09-14T08:19:27.849Z,20.50
2023-09-14T08:20:27.804Z,20.48
2023-09-14T08:21:27.716Z,20.55
2023-09-14T08:22:27.769Z,20.50
2023-09-14T08:23:27.544Z,20.55
2023-09-14T08:24:27.461Z,20.59
2023-09-14T08:25:27.410Z,20.65
2023-09-14T08:26:27.311Z,20.65
2023-09-14T08:27:27.235Z,20.70
2023-09-14T08:28:27.215Z,20.72
2023-09-14T08:29:27.071Z,20.70
2023-09-14T08:30:27.022Z,20.70
2023-09-14T08:31:26.975Z,20.70
2023-09-14T08:32:26.891Z,20.77
2023-09-14T08:33:26.809Z,20.69
2023-09-14T08:34:26.717Z,20.72
2023-09-14T08:35:27.097Z,20.74
2023-09-14T08:36:26.551Z,20.75
2023-09-14T08:37:26.476Z,20.70
2023-09-14T08:38:26.445Z,20.70
2023-09-14T08:39:26.312Z,20.67
2023-09-14T08:40:26.270Z,20.70
2023-09-14T08:41:26.159Z,20.67
2023-09-14T08:42:26.081Z,20.66
2023-09-14T08:43:26.059Z,20.67
2023-09-14T08:44:25.928Z,20.59
2023-09-14T08:45:25.862Z,20.62
2023-09-14T08:46:25.853Z,20.60
2023-09-14T08:47:25.732Z,20.52
2023-09-14T08:48:25.624Z,20.55
2023-09-14T08:49:25.624Z,20.52
2023-09-14T08:50:25.464Z,20.59
2023-09-14T08:51:25.385Z,20.55
2023-09-14T08:52:25.331Z,20.51
2023-09-14T08:53:25.236Z,20.47
2023-09-14T08:54:25.171Z,20.50
2023-09-14T08:55:25.128Z,20.37
2023-09-14T08:56:25.002Z,20.36
2023-09-14T08:57:24.929Z,20.26
2023-09-14T08:58:24.903Z,20.18
2023-09-14T08:59:24.783Z,20.25
2023-09-14T09:00:24.696Z,20.31
2023-09-14T09:01:27.028Z,20.26
2023-09-14T09:02:24.542Z,20.21
2023-09-14T09:03:24.463Z,20.26
2023-09-14T09:04:24.456Z,20.28
2023-09-14T09:05:24.319Z,20.26
2023-09-14T09:06:24.232Z,20.31
2023-09-14T09:07:24.192Z,20.24
2023-09-14T09:08:24.092Z,20.29
2023-09-14T09:09:23.995Z,20.24
2023-09-14T09:10:23.962Z,20.25
2023-09-14T09:11:23.857Z,20.26
2023-09-14T09:12:23.783Z,20.24
2023-09-14T09:13:23.758Z,20.26
2023-09-14T09:14:23.618Z,20.25
2023-09-14T09:15:23.552Z,20.32
2023-09-14T09:16:23.516Z,20.24
2023-09-14T09:17:23.403Z,20.21
2023-09-14T09:18:23.327Z,20.11
2023-09-14T09:19:23.290Z,20.18
2023-09-14T09:20:23.222Z,20.19
2023-09-14T09:21:23.131Z,20.16
2023-09-14T09:22:23.024Z,20.25
2023-09-14T09:23:22.917Z,20.22
2023-09-14T09:24:22.981Z,20.37
2023-09-14T09:25:22.822Z,20.37
2023-09-14T09:26:22.692Z,20.40
2023-09-14T09:27:22.663Z,20.37
2023-09-14T09:28:22.546Z,20.37
2023-09-14T09:29:22.461Z,20.39
2023-09-14T09:30:22.415Z,20.48
2023-09-14T09:31:22.390Z,20.47
2023-09-14T09:32:22.228Z,20.51
2023-09-14T09:33:22.148Z,20.62
2023-09-14T09:34:22.133Z,20.63
2023-09-14T09:35:22.044Z,20.72
2023-09-14T09:36:21.918Z,20.67
2023-09-14T09:37:21.889Z,20.77
2023-09-14T09:38:21.767Z,20.70
2023-09-14T09:39:21.685Z,20.70
2023-09-14T09:40:21.737Z,20.75
2023-09-14T09:41:21.533Z,20.74
2023-09-14T09:42:21.460Z,20.78
2023-09-14T09:43:21.421Z,20.84
2023-09-14T09:44:21.306Z,20.82
2023-09-14T09:45:21.250Z,20.77
2023-09-14T09:46:21.229Z,20.85
2023-09-14T09:47:21.079Z,20.75
2023-09-14T09:48:21.006Z,20.75
2023-09-14T09:49:21.016Z,20.80
2023-09-14T09:50:20.864Z,20.74
2023-09-14T09:51:20.765Z,20.75
2023-09-14T09:52:20.748Z,20.72
2023-09-14T09:53:20.610Z,20.75
2023-09-14T09:54:20.560Z,20.74
2023-09-14T09:55:20.496Z,20.77
2023-09-14T09:56:20.385Z,20.75
2023-09-14T09:57:20.313Z,20.77
2023-09-14T09:58:20.304Z,20.82
2023-09-14T09:59:20.238Z,20.81
2023-09-14T10:00:20.089Z,20.75
2023-09-14T10:01:20.112Z,20.74
2023-09-14T10:02:19.927Z,20.72
2023-09-14T10:03:19.992Z,20.60
2023-09-14T10:04:19.829Z,20.60
2023-09-14T10:05:19.693Z,20.56
2023-09-14T10:06:19.622Z,20.56
2023-09-14T10:07:19.560Z,20.58
2023-09-14T10:08:19.470Z,20.51
2023-09-14T10:09:19.410Z,20.48
2023-09-14T10:10:19.329Z,20.48
2023-09-14T10:11:19.232Z,20.58
2023-09-14T10:12:19.158Z,20.48
2023-09-14T10:13:19.124Z,20.47
2023-09-14T10:14:19.053Z,20.44
2023-09-14T10:15:18.957Z,20.47
2023-09-14T10:16:18.898Z,20.48
2023-09-14T10:17:18.802Z,20.44
2023-09-14T10:18:18.705Z,20.44
2023-09-14T10:19:18.680Z,20.51
2023-09-14T10:20:18.546Z,20.51
2023-09-14T10:21:18.489Z,20.50
2023-09-14T10:22:18.415Z,20.55
2023-09-14T10:23:18.326Z,20.59
2023-09-14T10:24:18.242Z,20.66
2023-09-14T10:25:18.197Z,20.62
2023-09-14T10:26:18.102Z,20.60
2023-09-14T10:27:18.008Z,20.50
2023-09-14T10:28:17.980Z,20.51
2023-09-14T10:29:17.852Z,20.65
2023-09-14T10:30:17.778Z,20.72
2023-09-14T10:31:17.926Z,20.66
2023-09-14T10:32:17.626Z,20.70
2023-09-14T10:33:17.561Z,20.77
2023-09-14T10:34:17.512Z,20.70
2023-09-14T10:35:17.413Z,20.70
2023-09-14T10:36:17.323Z,20.63
2023-09-14T10:37:17.307Z,20.75
2023-09-14T10:38:17.215Z,20.77
2023-09-14T10:39:17.087Z,20.65
2023-09-14T10:40:17.141Z,20.75
2023-09-14T10:41:16.939Z,20.74
2023-09-14T10:42:16.859Z,20.78
2023-09-14T10:43:16.797Z,20.72
2023-09-14T10:44:16.702Z,20.75
2023-09-14T10:45:16.634Z,20.82
2023-09-14T10:46:16.594Z,20.77
2023-09-14T10:47:16.488Z,20.85
2023-09-14T10:48:16.405Z,20.95
2023-09-14T10:49:16.394Z,20.93
2023-09-14T10:50:16.239Z,21.11
2023-09-14T10:51:16.169Z,21.14
2023-09-14T10:52:16.136Z,21.25
2023-09-14T10:53:16.032Z,21.21
2023-09-14T10:54:18.890Z,21.32
2023-09-14T10:55:15.897Z,21.36
2023-09-14T10:56:15.785Z,21.35
2023-09-14T10:57:15.725Z,21.37
2023-09-14T10:58:15.665Z,21.33
2023-09-14T10:59:15.555Z,21.42
2023-09-14T11:00:24.902Z,21.43
2023-09-14T11:02:23.058Z,21.37
2023-09-14T11:03:23.166Z,21.45
2023-09-14T11:04:15.480Z,21.42
2023-09-14T11:05:15.597Z,21.42
2023-09-14T11:06:15.606Z,21.48
2023-09-14T11:07:15.440Z,21.39
2023-09-14T11:08:15.158Z,21.43
2023-09-14T11:09:15.617Z,21.46
2023-09-14T11:10:15.585Z,21.43
2023-09-14T11:11:15.655Z,21.46
2023-09-14T11:12:14.724Z,21.43
2023-09-14T11:13:14.671Z,21.51
2023-09-14T11:14:15.722Z,21.51
2023-09-14T11:15:15.047Z,21.43
2023-09-14T11:16:15.475Z,21.39
2023-09-14T11:17:14.265Z,21.40
2023-09-14T11:18:14.493Z,21.33
2023-09-14T11:19:15.003Z,21.39
2023-09-14T11:20:14.313Z,21.39
2023-09-14T11:21:14.900Z,21.51
2023-09-14T11:22:15.025Z,21.39
2023-09-14T11:23:13.829Z,21.48
2023-09-14T11:24:13.848Z,21.39
2023-09-14T11:25:21.549Z,21.27
2023-09-14T11:26:20.515Z,21.25
2023-09-14T11:27:14.659Z,21.21
2023-09-14T11:28:14.850Z,21.27
2023-09-14T11:29:13.598Z,21.27
2023-09-14T11:30:14.608Z,21.43
2023-09-14T11:31:13.339Z,21.48
2023-09-14T11:32:13.275Z,21.48
2023-09-14T11:33:15.146Z,21.55
2023-09-14T11:34:15.020Z,21.64
2023-09-14T11:35:14.332Z,21.72
2023-09-14T11:36:13.922Z,21.75
2023-09-14T11:38:13.371Z,21.99
2023-09-14T11:39:13.928Z,21.98
2023-09-14T11:40:15.715Z,22.06
2023-09-14T11:42:15.973Z,22.17
2023-09-14T11:43:17.137Z,22.22
2023-09-14T11:45:13.265Z,22.33
2023-09-14T11:46:16.465Z,22.35
2023-09-14T11:47:14.999Z,22.36
2023-09-14T11:50:11.780Z,22.51
2023-09-14T11:51:11.645Z,22.48
2023-09-14T11:52:11.518Z,22.66
2023-09-14T11:53:11.440Z,22.66
2023-09-14T11:54:11.377Z,22.63
2023-09-14T11:55:11.304Z,22.65
2023-09-14T11:56:11.208Z,22.70
2023-09-14T11:57:11.137Z,22.76
2023-09-14T11:58:11.062Z,22.90
2023-09-14T11:59:10.988Z,23.20
2023-09-14T12:00:10.920Z,23.71
2023-09-14T12:01:10.947Z,24.06
2023-09-14T12:02:10.762Z,24.32
2023-09-14T12:03:10.709Z,24.65
2023-09-14T12:04:10.771Z,24.96
2023-09-14T12:05:10.607Z,25.44
2023-09-14T12:06:10.475Z,25.81
2023-09-14T12:07:10.392Z,25.99
2023-09-14T12:08:10.325Z,26.10
2023-09-14T12:09:25.168Z,26.37
2023-09-14T12:10:10.195Z,26.74
2023-09-14T12:11:10.104Z,27.18
2023-09-14T12:12:10.038Z,27.45
2023-09-14T12:13:09.957Z,27.75
2023-09-14T12:14:09.892Z,28.07
2023-09-14T12:15:09.828Z,28.32
2023-09-14T12:16:09.850Z,28.63
2023-09-14T12:17:09.746Z,28.94
2023-09-14T12:18:09.643Z,29.26
2023-09-14T12:19:09.588Z,29.47
2023-09-14T12:20:09.515Z,29.79
2023-09-14T12:21:09.398Z,30.03
2023-09-14T12:22:09.328Z,29.87
2023-09-14T12:23:09.257Z,29.60
2023-09-14T12:24:09.186Z,29.63
2023-09-14T12:25:09.117Z,29.44
2023-09-14T12:26:09.052Z,29.32
2023-09-14T12:27:08.974Z,29.16
2023-09-14T12:28:08.912Z,29.17
2023-09-14T12:29:08.853Z,29.04
2023-09-14T12:30:08.774Z,29.02
2023-09-14T12:31:08.700Z,28.70
2023-09-14T12:32:08.637Z,28.48
2023-09-14T12:33:08.651Z,28.48
2023-09-14T12:34:08.652Z,28.59
2023-09-14T12:35:08.429Z,28.47
2023-09-14T12:36:08.377Z,28.44
2023-09-14T12:37:08.310Z,28.32
2023-09-14T12:38:08.216Z,28.44
2023-09-14T12:39:08.173Z,28.45
2023-09-14T12:40:08.122Z,28.70
2023-09-14T12:41:08.003Z,28.88
2023-09-14T12:42:07.934Z,29.10
2023-09-14T12:43:07.938Z,29.07
2023-09-14T12:44:07.796Z,28.86
2023-09-14T12:45:07.731Z,28.51
2023-09-14T12:46:07.742Z,28.48
2023-09-14T12:47:07.583Z,28.26
2023-09-14T12:48:07.577Z,28.04
2023-09-14T12:49:07.487Z,28.02
2023-09-14T12:50:07.395Z,27.78
2023-09-14T12:51:07.305Z,27.67
2023-09-14T12:52:07.263Z,27.54
2023-09-14T12:53:07.167Z,27.59
2023-09-14T12:54:07.096Z,27.39
2023-09-14T12:55:07.069Z,27.40
2023-09-14T12:56:06.965Z,27.35
2023-09-14T12:57:06.886Z,27.30
2023-09-14T12:58:06.813Z,27.45
2023-09-14T12:59:06.738Z,28.12
2023-09-14T13:00:06.666Z,28.86
2023-09-14T13:01:06.602Z,29.44
2023-09-14T13:02:06.545Z,29.93
2023-09-14T13:03:06.491Z,30.39
2023-09-14T13:04:06.455Z,30.87
2023-09-14T13:05:06.320Z,31.44
2023-09-14T13:06:06.250Z,31.90
2023-09-14T13:07:06.226Z,32.37